DAL236 KSEA-KLAX
Flight info
| Callsign | DAL236 |
|---|---|
| Flight time | N/A |
| Altitude | 39000 |
| Route | SUMMA2 SUMMA JINMO Q7 JAGWA BURGL IRNMN2 |
| Aircraft | B738/M-SDE2E3FGHIRWXY/LB1 |
Departure
| Time | N/A |
|---|---|
| Airport | Seattle–Tacoma International Airport (KSEA) |
Arrival
| Time | 2026-04-24 19:51 |
|---|---|
| Airport | Los Angeles International Airport (KLAX) |
| Time | Latitude | Longitude | Altitude | Speed | Heading |
|---|---|---|---|---|---|
| 2026-04-24 16:51 | 47.44076 | -122.30063 | 393 ft | 0 kts | 46° |
| 2026-04-24 18:54 | 38.69679 | -120.73884 | 39017 ft | 441 kts | 181° |
| 2026-04-24 18:55 | 38.60487 | -120.73193 | 39005 ft | 441 kts | 181° |
| 2026-04-24 18:56 | 38.54356 | -120.72735 | 39005 ft | 441 kts | 181° |
| 2026-04-24 18:56 | 38.48220 | -120.72276 | 39005 ft | 442 kts | 181° |
| 2026-04-24 18:57 | 38.42076 | -120.71817 | 39008 ft | 442 kts | 181° |
| 2026-04-24 18:57 | 38.35937 | -120.71360 | 39007 ft | 442 kts | 181° |
| 2026-04-24 18:58 | 38.29830 | -120.70905 | 39006 ft | 442 kts | 181° |
| 2026-04-24 18:58 | 38.23694 | -120.70450 | 39011 ft | 442 kts | 181° |
| 2026-04-24 18:59 | 38.17548 | -120.69994 | 39010 ft | 442 kts | 182° |
| 2026-04-24 18:59 | 38.11397 | -120.69537 | 39006 ft | 442 kts | 182° |
| 2026-04-24 19:00 | 38.05254 | -120.69084 | 39008 ft | 442 kts | 182° |
| 2026-04-24 19:00 | 37.99108 | -120.68631 | 39001 ft | 442 kts | 182° |
| 2026-04-24 19:01 | 37.92961 | -120.68178 | 38980 ft | 442 kts | 182° |
| 2026-04-24 19:01 | 37.86815 | -120.67726 | 38990 ft | 442 kts | 182° |
| 2026-04-24 19:02 | 37.81706 | -120.67351 | 38990 ft | 443 kts | 182° |
| 2026-04-24 19:02 | 37.74509 | -120.66823 | 38990 ft | 443 kts | 182° |
| 2026-04-24 19:03 | 37.68355 | -120.66373 | 38984 ft | 443 kts | 182° |
| 2026-04-24 19:03 | 37.62237 | -120.65926 | 38987 ft | 443 kts | 182° |
| 2026-04-24 19:04 | 37.56082 | -120.65477 | 38987 ft | 443 kts | 182° |
| 2026-04-24 19:04 | 37.49919 | -120.65028 | 38982 ft | 443 kts | 182° |
| 2026-04-24 19:05 | 37.43773 | -120.64582 | 38986 ft | 443 kts | 182° |
| 2026-04-24 19:05 | 37.37620 | -120.64135 | 38989 ft | 443 kts | 182° |
| 2026-04-24 19:06 | 37.31455 | -120.63419 | 38972 ft | 450 kts | 173° |
| 2026-04-24 19:06 | 37.25377 | -120.61455 | 38990 ft | 452 kts | 171° |
| 2026-04-24 19:07 | 37.19310 | -120.59401 | 38991 ft | 452 kts | 171° |
| 2026-04-24 19:07 | 37.14259 | -120.57725 | 38974 ft | 451 kts | 172° |
| 2026-04-24 19:08 | 37.07156 | -120.55412 | 38983 ft | 451 kts | 172° |
| 2026-04-24 19:08 | 37.01073 | -120.53448 | 38996 ft | 451 kts | 172° |
| 2026-04-24 19:09 | 36.94986 | -120.51486 | 38981 ft | 452 kts | 172° |
| 2026-04-24 19:09 | 36.88919 | -120.49533 | 38991 ft | 452 kts | 172° |
| 2026-04-24 19:10 | 36.82820 | -120.47572 | 38997 ft | 453 kts | 172° |
| 2026-04-24 19:10 | 36.76708 | -120.45610 | 38995 ft | 453 kts | 172° |
| 2026-04-24 19:11 | 36.70598 | -120.43651 | 38998 ft | 453 kts | 173° |
| 2026-04-24 19:11 | 36.64469 | -120.41690 | 38998 ft | 454 kts | 173° |
| 2026-04-24 19:12 | 36.58385 | -120.39747 | 39012 ft | 454 kts | 172° |
| 2026-04-24 19:12 | 36.52256 | -120.37792 | 38997 ft | 454 kts | 172° |
| 2026-04-24 19:13 | 36.47171 | -120.36173 | 39000 ft | 454 kts | 172° |
| 2026-04-24 19:13 | 36.40013 | -120.33897 | 38998 ft | 454 kts | 173° |
| 2026-04-24 19:14 | 36.33902 | -120.31956 | 38992 ft | 453 kts | 173° |
| 2026-04-24 19:14 | 36.27802 | -120.30023 | 38996 ft | 452 kts | 173° |
| 2026-04-24 19:15 | 36.21743 | -120.28107 | 38997 ft | 452 kts | 173° |
| 2026-04-24 19:15 | 36.15651 | -120.26182 | 38976 ft | 451 kts | 173° |
| 2026-04-24 19:16 | 36.06525 | -120.23307 | 38993 ft | 450 kts | 173° |
| 2026-04-24 19:16 | 36.00456 | -120.21397 | 38999 ft | 450 kts | 173° |
| 2026-04-24 19:17 | 35.94378 | -120.19489 | 38996 ft | 450 kts | 174° |
| 2026-04-24 19:17 | 35.88344 | -120.17596 | 39007 ft | 451 kts | 174° |
| 2026-04-24 19:18 | 35.82261 | -120.15692 | 39000 ft | 451 kts | 174° |
| 2026-04-24 19:18 | 35.76164 | -120.13785 | 38984 ft | 453 kts | 174° |
| 2026-04-24 19:19 | 35.70050 | -120.11877 | 39004 ft | 454 kts | 174° |
| 2026-04-24 19:19 | 35.64022 | -120.09167 | 38442 ft | 480 kts | 155° |
| 2026-04-24 19:20 | 35.61195 | -120.06976 | 37884 ft | 481 kts | 155° |
| 2026-04-24 19:20 | 35.58384 | -120.04751 | 37268 ft | 479 kts | 155° |
| 2026-04-24 19:20 | 35.55583 | -120.02548 | 36706 ft | 478 kts | 156° |
| 2026-04-24 19:20 | 35.52770 | -120.00374 | 36156 ft | 477 kts | 157° |
| 2026-04-24 19:21 | 35.49952 | -119.98228 | 35651 ft | 475 kts | 158° |
| 2026-04-24 19:21 | 35.47147 | -119.96111 | 35237 ft | 472 kts | 158° |
| 2026-04-24 19:21 | 35.44352 | -119.94011 | 34811 ft | 469 kts | 158° |
| 2026-04-24 19:21 | 35.41578 | -119.91931 | 34395 ft | 466 kts | 158° |
| 2026-04-24 19:22 | 35.39754 | -119.90569 | 34102 ft | 464 kts | 159° |
| 2026-04-24 19:22 | 35.36081 | -119.87815 | 33473 ft | 460 kts | 159° |
| 2026-04-24 19:22 | 35.33388 | -119.85794 | 33030 ft | 458 kts | 159° |
| 2026-04-24 19:22 | 35.30684 | -119.83768 | 32601 ft | 455 kts | 159° |
| 2026-04-24 19:23 | 35.27998 | -119.81723 | 32188 ft | 455 kts | 156° |
| 2026-04-24 19:23 | 35.25414 | -119.79467 | 31774 ft | 457 kts | 153° |
| 2026-04-24 19:23 | 35.22901 | -119.77081 | 31362 ft | 456 kts | 152° |
| 2026-04-24 19:23 | 35.20425 | -119.74673 | 30922 ft | 454 kts | 152° |
| 2026-04-24 19:24 | 35.17959 | -119.72283 | 30530 ft | 451 kts | 153° |
| 2026-04-24 19:24 | 35.15503 | -119.69937 | 30136 ft | 448 kts | 153° |
| 2026-04-24 19:24 | 35.13039 | -119.67614 | 29684 ft | 445 kts | 153° |
| 2026-04-24 19:24 | 35.10590 | -119.65324 | 29236 ft | 442 kts | 153° |
| 2026-04-24 19:25 | 35.08149 | -119.63052 | 28784 ft | 438 kts | 153° |
| 2026-04-24 19:25 | 35.05731 | -119.60805 | 28363 ft | 435 kts | 153° |
| 2026-04-24 19:25 | 35.03331 | -119.58577 | 27922 ft | 432 kts | 153° |
| 2026-04-24 19:25 | 35.00953 | -119.56369 | 27544 ft | 428 kts | 153° |
| 2026-04-24 19:26 | 34.99389 | -119.54918 | 27272 ft | 426 kts | 153° |
| 2026-04-24 19:26 | 34.97032 | -119.52733 | 26888 ft | 424 kts | 153° |
| 2026-04-24 19:26 | 34.94694 | -119.50568 | 26490 ft | 421 kts | 153° |
| 2026-04-24 19:26 | 34.92366 | -119.48410 | 26101 ft | 419 kts | 153° |
| 2026-04-24 19:27 | 34.90044 | -119.46277 | 25697 ft | 417 kts | 153° |
| 2026-04-24 19:27 | 34.87707 | -119.44181 | 25277 ft | 415 kts | 153° |
| 2026-04-24 19:27 | 34.85376 | -119.42111 | 24829 ft | 414 kts | 154° |
| 2026-04-24 19:27 | 34.83052 | -119.40042 | 24431 ft | 413 kts | 153° |
| 2026-04-24 19:28 | 34.80737 | -119.37974 | 24045 ft | 413 kts | 153° |
| 2026-04-24 19:28 | 34.78421 | -119.35904 | 23615 ft | 413 kts | 153° |
| 2026-04-24 19:28 | 34.76107 | -119.33836 | 23152 ft | 413 kts | 153° |
| 2026-04-24 19:28 | 34.73789 | -119.31779 | 22698 ft | 412 kts | 153° |
| 2026-04-24 19:29 | 34.69159 | -119.27735 | 21821 ft | 408 kts | 153° |
| 2026-04-24 19:29 | 34.66859 | -119.25732 | 21385 ft | 405 kts | 153° |
| 2026-04-24 19:29 | 34.64603 | -119.23769 | 21004 ft | 403 kts | 153° |
| 2026-04-24 19:30 | 34.62296 | -119.21771 | 20572 ft | 401 kts | 152° |
| 2026-04-24 19:30 | 34.60060 | -119.19840 | 20168 ft | 399 kts | 152° |
| 2026-04-24 19:30 | 34.57793 | -119.17897 | 19753 ft | 397 kts | 152° |
| 2026-04-24 19:30 | 34.55554 | -119.15963 | 19351 ft | 395 kts | 152° |
| 2026-04-24 19:31 | 34.53334 | -119.14002 | 18945 ft | 393 kts | 151° |
| 2026-04-24 19:31 | 34.51135 | -119.12044 | 18516 ft | 393 kts | 150° |
| 2026-04-24 19:31 | 34.48937 | -119.10081 | 18086 ft | 392 kts | 150° |
| 2026-04-24 19:31 | 34.46755 | -119.08145 | 17602 ft | 383 kts | 150° |
| 2026-04-24 19:32 | 34.44637 | -119.06281 | 17222 ft | 371 kts | 150° |
| 2026-04-24 19:32 | 34.42576 | -119.04475 | 16873 ft | 360 kts | 150° |
| 2026-04-24 19:32 | 34.40563 | -119.02731 | 16481 ft | 351 kts | 151° |
| 2026-04-24 19:32 | 34.38594 | -119.01031 | 16110 ft | 343 kts | 150° |
| 2026-04-24 19:33 | 34.36682 | -118.99378 | 15759 ft | 335 kts | 150° |
| 2026-04-24 19:33 | 34.34790 | -118.97744 | 15443 ft | 334 kts | 150° |
| 2026-04-24 19:33 | 34.32902 | -118.96082 | 15108 ft | 337 kts | 149° |
| 2026-04-24 19:33 | 34.31018 | -118.94369 | 14745 ft | 339 kts | 148° |
| 2026-04-24 19:34 | 34.29135 | -118.92648 | 14404 ft | 338 kts | 148° |
| 2026-04-24 19:34 | 34.27280 | -118.90956 | 14043 ft | 330 kts | 148° |
| 2026-04-24 19:34 | 34.25462 | -118.89304 | 13686 ft | 324 kts | 148° |
| 2026-04-24 19:34 | 34.23665 | -118.87660 | 13341 ft | 325 kts | 147° |
| 2026-04-24 19:35 | 34.21866 | -118.86006 | 12980 ft | 325 kts | 147° |
| 2026-04-24 19:35 | 34.20064 | -118.84349 | 12638 ft | 326 kts | 147° |
| 2026-04-24 19:35 | 34.18261 | -118.82693 | 12291 ft | 322 kts | 147° |
| 2026-04-24 19:35 | 34.16503 | -118.81074 | 11949 ft | 313 kts | 146° |
| 2026-04-24 19:36 | 34.14878 | -118.79419 | 11637 ft | 307 kts | 142° |
| 2026-04-24 19:36 | 34.13319 | -118.77696 | 11315 ft | 301 kts | 141° |
| 2026-04-24 19:36 | 34.11791 | -118.75989 | 11039 ft | 298 kts | 141° |
| 2026-04-24 19:36 | 34.10261 | -118.74304 | 10768 ft | 299 kts | 141° |
| 2026-04-24 19:37 | 34.08728 | -118.72583 | 10468 ft | 301 kts | 141° |
| 2026-04-24 19:37 | 34.07161 | -118.70934 | 10144 ft | 296 kts | 142° |
| 2026-04-24 19:37 | 34.05642 | -118.69303 | 9852 ft | 289 kts | 140° |
| 2026-04-24 19:37 | 34.04167 | -118.67689 | 9531 ft | 283 kts | 139° |
| 2026-04-24 19:38 | 34.03039 | -118.65760 | 9195 ft | 286 kts | 111° |
| 2026-04-24 19:38 | 34.02598 | -118.63418 | 8970 ft | 289 kts | 98° |
| 2026-04-24 19:38 | 34.02387 | -118.61007 | 8661 ft | 290 kts | 96° |
| 2026-04-24 19:38 | 34.02193 | -118.58582 | 8377 ft | 292 kts | 97° |
| 2026-04-24 19:39 | 34.01983 | -118.56146 | 8090 ft | 291 kts | 97° |
| 2026-04-24 19:39 | 34.01771 | -118.53754 | 8004 ft | 283 kts | 97° |
| 2026-04-24 19:39 | 34.01558 | -118.51443 | 7984 ft | 270 kts | 97° |
| 2026-04-24 19:39 | 34.01353 | -118.49256 | 7990 ft | 254 kts | 97° |
| 2026-04-24 19:40 | 34.01157 | -118.47179 | 7972 ft | 246 kts | 97° |
| 2026-04-24 19:40 | 34.01046 | -118.45144 | 7976 ft | 242 kts | 83° |
| 2026-04-24 19:40 | 34.01399 | -118.43172 | 7906 ft | 242 kts | 76° |
| 2026-04-24 19:40 | 34.01774 | -118.41196 | 7636 ft | 241 kts | 77° |
| 2026-04-24 19:41 | 34.02125 | -118.39229 | 7366 ft | 238 kts | 78° |
| 2026-04-24 19:41 | 34.02471 | -118.37245 | 6933 ft | 244 kts | 78° |
| 2026-04-24 19:41 | 34.02804 | -118.35240 | 6605 ft | 242 kts | 81° |
| 2026-04-24 19:41 | 34.03023 | -118.33220 | 6208 ft | 244 kts | 83° |
| 2026-04-24 19:42 | 34.03218 | -118.31188 | 5824 ft | 245 kts | 84° |
| 2026-04-24 19:42 | 34.03419 | -118.29145 | 5427 ft | 246 kts | 83° |
| 2026-04-24 19:42 | 34.03635 | -118.27101 | 5028 ft | 246 kts | 83° |
| 2026-04-24 19:42 | 34.03843 | -118.25042 | 4607 ft | 248 kts | 84° |
| 2026-04-24 19:43 | 34.04031 | -118.22975 | 4177 ft | 249 kts | 86° |
| 2026-04-24 19:43 | 34.04192 | -118.20902 | 3759 ft | 249 kts | 85° |
| 2026-04-24 19:43 | 34.04388 | -118.18825 | 3347 ft | 250 kts | 85° |
| 2026-04-24 19:43 | 34.04553 | -118.16733 | 2930 ft | 251 kts | 88° |
| 2026-04-24 19:44 | 34.04665 | -118.14648 | 2648 ft | 245 kts | 89° |
| 2026-04-24 19:44 | 34.04454 | -118.12736 | 2565 ft | 225 kts | 117° |
| 2026-04-24 19:44 | 34.03503 | -118.11407 | 2610 ft | 204 kts | 153° |
| 2026-04-24 19:44 | 34.02157 | -118.10969 | 2590 ft | 202 kts | 181° |
| 2026-04-24 19:45 | 34.00861 | -118.11472 | 2591 ft | 198 kts | 218° |
| 2026-04-24 19:45 | 33.99970 | -118.12670 | 2584 ft | 187 kts | 230° |
| 2026-04-24 19:45 | 33.99217 | -118.13863 | 2598 ft | 172 kts | 229° |
| 2026-04-24 19:45 | 33.98509 | -118.15002 | 2591 ft | 172 kts | 232° |
| 2026-04-24 19:46 | 33.97776 | -118.16209 | 2622 ft | 184 kts | 240° |
| 2026-04-24 19:46 | 33.97506 | -118.17701 | 2635 ft | 181 kts | 264° |
| 2026-04-24 19:46 | 33.97359 | -118.19173 | 2595 ft | 173 kts | 258° |
| 2026-04-24 19:46 | 33.97205 | -118.20593 | 2596 ft | 169 kts | 259° |
| 2026-04-24 19:47 | 33.97064 | -118.21984 | 2596 ft | 166 kts | 259° |
| 2026-04-24 19:47 | 33.96932 | -118.23367 | 2604 ft | 165 kts | 260° |
| 2026-04-24 19:47 | 33.96798 | -118.24746 | 2601 ft | 166 kts | 258° |
| 2026-04-24 19:47 | 33.96658 | -118.26114 | 2412 ft | 168 kts | 259° |
| 2026-04-24 19:48 | 33.96516 | -118.27491 | 2211 ft | 163 kts | 259° |
| 2026-04-24 19:48 | 33.96383 | -118.28799 | 2041 ft | 150 kts | 258° |
| 2026-04-24 19:48 | 33.96138 | -118.31145 | 1626 ft | 139 kts | 259° |
| 2026-04-24 19:49 | 33.95896 | -118.33498 | 1247 ft | 146 kts | 258° |
| 2026-04-24 19:49 | 33.95638 | -118.35900 | 901 ft | 145 kts | 261° |
| 2026-04-24 19:50 | 33.95277 | -118.39602 | 303 ft | 148 kts | 260° |
| 2026-04-24 19:50 | 33.95148 | -118.40794 | 139 ft | 138 kts | 260° |
| 2026-04-24 19:51 | 33.94970 | -118.42533 | 125 ft | 50 kts | 262° |
| 2026-04-24 19:51 | 33.94938 | -118.42811 | 125 ft | 32 kts | 262° |
| 2026-04-24 19:52 | 33.94853 | -118.43090 | 122 ft | 14 kts | 184° |
| 2026-04-24 19:52 | 33.94755 | -118.43079 | 123 ft | 14 kts | 174° |
| 2026-04-24 19:52 | 33.94674 | -118.43029 | 123 ft | 13 kts | 131° |
| 2026-04-24 19:52 | 33.94623 | -118.42939 | 124 ft | 13 kts | 109° |
| 2026-04-24 19:53 | 33.94623 | -118.42834 | 125 ft | 12 kts | 84° |
| 2026-04-24 19:53 | 33.94633 | -118.42731 | 123 ft | 12 kts | 83° |
| 2026-04-24 19:53 | 33.94652 | -118.42534 | 125 ft | 12 kts | 83° |
| 2026-04-24 19:54 | 33.94661 | -118.42440 | 123 ft | 11 kts | 83° |
| 2026-04-24 19:54 | 33.94673 | -118.42348 | 123 ft | 11 kts | 81° |
| 2026-04-24 19:54 | 33.94682 | -118.42258 | 125 ft | 11 kts | 85° |
| 2026-04-24 19:54 | 33.94690 | -118.42173 | 122 ft | 10 kts | 83° |
| 2026-04-24 19:55 | 33.94696 | -118.42115 | 125 ft | 10 kts | 83° |
| 2026-04-24 19:55 | 33.94707 | -118.42006 | 125 ft | 10 kts | 83° |
| 2026-04-24 19:55 | 33.94717 | -118.41926 | 120 ft | 10 kts | 81° |
| 2026-04-24 19:55 | 33.94724 | -118.41848 | 123 ft | 9 kts | 81° |
| 2026-04-24 19:56 | 33.94734 | -118.41770 | 121 ft | 10 kts | 83° |
| 2026-04-24 19:56 | 33.94743 | -118.41676 | 125 ft | 13 kts | 84° |
| 2026-04-24 19:56 | 33.94753 | -118.41558 | 125 ft | 16 kts | 84° |
| 2026-04-24 19:56 | 33.94772 | -118.41427 | 125 ft | 16 kts | 73° |
| 2026-04-24 19:57 | 33.94794 | -118.41300 | 124 ft | 15 kts | 83° |
| 2026-04-24 19:57 | 33.94806 | -118.41176 | 122 ft | 15 kts | 83° |
| 2026-04-24 19:57 | 33.94818 | -118.41058 | 122 ft | 14 kts | 83° |
| 2026-04-24 19:57 | 33.94827 | -118.40945 | 124 ft | 13 kts | 92° |
| 2026-04-24 19:58 | 33.94761 | -118.40903 | 123 ft | 13 kts | 194° |
| 2026-04-24 19:58 | 33.94712 | -118.40913 | 123 ft | 3 kts | 181° |
| 2026-04-24 19:58 | 33.94694 | -118.40912 | 123 ft | 3 kts | 176° |
| 2026-04-24 19:58 | 33.94676 | -118.40908 | 123 ft | 3 kts | 169° |
| 2026-04-24 19:59 | 33.94658 | -118.40903 | 124 ft | 3 kts | 161° |
| 2026-04-24 19:59 | 33.94642 | -118.40887 | 121 ft | 3 kts | 119° |
| 2026-04-24 19:59 | 33.94638 | -118.40859 | 122 ft | 3 kts | 94° |
| 2026-04-24 19:59 | 33.94638 | -118.40841 | 124 ft | 0 kts | 88° |
| 2026-04-24 20:00 | 33.94638 | -118.40840 | 125 ft | 0 kts | 89° |